Time;durP1;ratioP1;P1;durP2;ratioP2;P2;SDS_P1;SDS_P2;PMS_P1;PMS_P2;Temp;Humidity;BMP_temperature;BMP_pressure;BME280_temperature;BME280_humidity;BME280_pressure;Samples;Min_cycle;Max_cycle;Signal;HPM_P1;HPM_P2
2024/02/13 00:04:06;;;;;;;7.80;6.60;;;;;;;6.15;100.00;150216.50;10586321;28;20063;-74
2024/02/13 00:09:08;;;;;;;7.22;6.40;;;;;;;6.20;100.00;150229.41;10584137;28;20505;-75
2024/02/13 00:14:10;;;;;;;7.22;6.15;;;;;;;6.14;100.00;150212.66;10585579;28;20040;-75
2024/02/13 00:19:11;;;;;;;8.60;6.82;;;;;;;6.09;100.00;150199.81;10584969;28;20039;-75
2024/02/13 00:24:16;;;;;;;8.32;6.32;;;;;;;5.99;100.00;150175.38;10585666;28;20395;-75
2024/02/13 00:29:18;;;;;;;8.05;6.60;;;;;;;5.97;100.00;150171.47;10585152;28;20093;-75
2024/02/13 00:34:22;;;;;;;7.47;5.95;;;;;;;5.72;100.00;150107.13;10584839;28;20047;-75
2024/02/13 00:39:24;;;;;;;7.63;6.82;;;;;;;5.70;100.00;150103.25;10584557;28;20377;-74
2024/02/13 00:44:26;;;;;;;7.22;6.25;;;;;;;5.78;100.00;150122.56;10584760;28;20040;-75
2024/02/13 00:49:28;;;;;;;6.82;6.13;;;;;;;5.92;100.00;150158.63;10566288;28;20039;-75
2024/02/13 00:54:30;;;;;;;7.00;6.07;;;;;;;5.73;100.00;150109.69;10565984;28;20495;-74
2024/02/13 00:59:32;;;;;;;7.90;7.03;;;;;;;5.82;100.00;150134.13;10583589;28;20046;-75
2024/02/13 01:04:34;;;;;;;6.90;5.47;;;;;;;5.48;100.00;150046.66;10582876;28;20088;-75
2024/02/13 01:09:36;;;;;;;8.30;7.35;;;;;;;5.38;100.00;150022.22;10583560;28;20063;-75
2024/02/13 01:14:38;;;;;;;7.22;6.07;;;;;;;5.59;100.00;150073.69;10582635;28;20089;-75
2024/02/13 01:19:41;;;;;;;7.53;6.28;;;;;;;5.39;100.00;150023.50;10583104;28;20043;-74
2024/02/13 01:24:43;;;;;;;7.45;6.03;;;;;;;5.42;100.00;150031.25;10564313;28;20048;-75
2024/02/13 01:29:44;;;;;;;7.82;7.03;;;;;;;5.34;100.00;150010.66;10583068;28;20395;-73
2024/02/13 01:34:46;;;;;;;7.38;6.63;;;;;;;5.10;100.00;149951.53;10582298;28;20111;-74
2024/02/13 01:39:48;;;;;;;8.20;6.30;;;;;;;5.26;100.00;149991.38;10582873;28;20096;-74
2024/02/13 01:44:53;;;;;;;7.38;6.43;;;;;;;5.35;100.00;150014.50;10582114;28;20078;-74
2024/02/13 01:49:55;;;;;;;7.78;6.97;;;;;;;5.30;100.00;150001.66;10582672;28;20046;-74
2024/02/13 01:54:57;;;;;;;7.72;6.03;;;;;;;5.37;100.00;150018.41;10582359;28;20039;-74
2024/02/13 01:59:59;;;;;;;7.15;6.45;;;;;;;5.33;100.00;150009.38;10582902;28;20031;-74
2024/02/13 02:05:01;;;;;;;6.90;6.15;;;;;;;5.22;100.00;149981.06;10582482;28;20075;-74
2024/02/13 02:10:03;;;;;;;8.98;7.43;;;;;;;5.08;100.00;149946.38;10583164;28;20047;-74
2024/02/13 02:15:06;;;;;;;7.88;7.03;;;;;;;5.06;100.00;149942.53;10563590;28;20067;-75
2024/02/13 02:20:09;;;;;;;9.48;8.15;;;;;;;5.13;100.00;149957.94;10563727;28;20075;-75
2024/02/13 02:25:11;;;;;;;8.43;7.45;;;;;;;5.12;100.00;149955.38;10581789;28;20560;-75
2024/02/13 02:30:13;;;;;;;8.93;7.75;;;;;;;5.15;100.00;149964.38;10581980;28;20123;-74
2024/02/13 02:35:18;;;;;;;8.00;7.22;;;;;;;5.05;100.00;149939.97;10587703;28;20044;-75
2024/02/13 02:40:20;;;;;;;8.80;7.03;;;;;;;4.95;100.00;149912.94;10590889;28;20036;-75
2024/02/13 02:45:22;;;;;;;9.77;7.82;;;;;;;4.97;100.00;149919.38;10589540;28;20044;-74
2024/02/13 02:50:24;;;;;;;8.93;8.00;;;;;;;5.09;100.00;149948.97;10571291;28;20130;-74
2024/02/13 02:55:26;;;;;;;9.20;7.97;;;;;;;5.19;100.00;149973.41;10587871;28;20040;-74
2024/02/13 03:00:29;;;;;;;8.43;7.63;;;;;;;5.12;100.00;149956.66;10569284;28;20043;-75
2024/02/13 03:05:33;;;;;;;12.50;8.27;;;;;;;5.24;100.00;149986.25;10588313;28;20079;-74
2024/02/13 03:10:35;;;;;;;7.80;6.68;;;;;;;5.15;100.00;149963.09;10587471;28;20073;-74
2024/02/13 03:15:37;;;;;;;9.88;7.45;;;;;;;5.20;100.00;149977.22;10588046;28;20044;-75
2024/02/13 03:20:39;;;;;;;11.68;7.70;;;;;;;5.26;100.00;149991.38;10587551;28;20043;-75
2024/02/13 03:25:41;;;;;;;9.50;7.43;;;;;;;5.31;100.00;150004.22;10568737;28;20096;-75
2024/02/13 03:30:43;;;;;;;8.07;7.10;;;;;;;5.19;100.00;149973.41;10586452;28;20084;-75
2024/02/13 03:35:46;;;;;;;6.65;5.60;;;;;;;5.32;100.00;150008.09;10586152;28;20078;-75
2024/02/13 03:40:47;;;;;;;8.55;6.85;;;;;;;5.23;100.00;149983.69;10585313;28;20118;-74
2024/02/13 03:45:49;;;;;;;8.05;7.25;;;;;;;5.36;100.00;150015.78;10586129;28;20042;-74
2024/02/13 03:50:51;;;;;;;7.10;6.22;;;;;;;5.45;100.00;150040.25;10585420;28;20086;-76
2024/02/13 03:55:52;;;;;;;8.27;7.43;;;;;;;5.52;100.00;150058.22;10585484;28;20115;-75
2024/02/13 04:00:55;;;;;;;7.35;6.65;;;;;;;5.52;100.00;150056.94;10585101;28;20555;-75
2024/02/13 04:05:57;;;;;;;7.22;6.53;;;;;;;5.51;100.00;150055.66;10587162;28;20043;-75
2024/02/13 04:10:59;;;;;;;8.45;6.55;;;;;;;5.37;100.00;150018.41;10568192;28;20092;-75
2024/02/13 04:16:01;;;;;;;5.72;5.18;;;;;;;5.44;100.00;150036.38;10568251;28;20109;-74
2024/02/13 04:21:04;;;;;;;8.75;6.82;;;;;;;5.47;100.00;150045.38;10567675;28;20100;-74
2024/02/13 04:26:06;;;;;;;7.18;6.47;;;;;;;5.38;100.00;150020.97;10568664;28;20108;-76
2024/02/13 04:31:25;;;;;;;5.57;4.97;;;;;;;5.20;100.00;149975.94;10585338;28;20097;-75
2024/02/13 04:36:27;;;;;;;5.68;5.03;;;;;;;5.47;100.00;150044.09;10584248;28;20116;-74
2024/02/13 04:41:30;;;;;;;7.03;5.70;;;;;;;5.25;100.00;149988.81;10584736;28;20430;-74
2024/02/13 04:46:31;;;;;;;6.55;5.95;;;;;;;5.09;100.00;149948.97;10584391;28;20546;-75
2024/02/13 04:51:33;;;;;;;7.50;5.65;;;;;;;5.19;100.00;149974.66;10566248;28;20063;-74
2024/02/13 04:56:35;;;;;;;7.88;6.88;;;;;;;5.19;100.00;149974.66;10583346;28;20067;-74
2024/02/13 05:01:39;;;;;;;6.82;4.50;;;;;;;5.22;100.00;149982.41;10583860;28;20039;-75
2024/02/13 05:12:22;;;;;;;6.72;4.28;;;;;;;5.13;100.00;149959.22;10455419;28;20051;-75
2024/02/13 05:17:24;;;;;;;7.35;4.90;;;;;;;5.19;100.00;149974.66;10454438;28;20598;-75
2024/02/13 05:22:26;;;;;;;5.13;4.28;;;;;;;5.23;100.00;149984.97;10438052;28;20405;-74
2024/02/13 05:27:27;;;;;;;6.75;4.68;;;;;;;5.16;100.00;149966.94;10453060;28;20057;-74
2024/02/13 05:32:30;;;;;;;5.03;4.50;;;;;;;5.24;100.00;149986.25;10453638;28;20079;-74
2024/02/13 05:37:33;;;;;;;10.50;4.88;;;;;;;5.13;100.00;149959.22;10453642;28;20547;-75
2024/02/13 05:42:35;;;;;;;5.28;4.47;;;;;;;5.11;100.00;149952.81;10521082;28;20064;-74
2024/02/13 05:47:37;;;;;;;7.03;4.40;;;;;;;5.21;100.00;149979.78;10582565;28;20494;-75
2024/02/13 05:52:39;;;;;;;5.15;4.53;;;;;;;5.25;100.00;149988.81;10583252;28;20047;-75
2024/02/13 05:57:41;;;;;;;4.97;4.05;;;;;;;5.15;100.00;149963.09;10582186;28;20519;-74
2024/02/13 06:02:43;;;;;;;5.93;4.10;;;;;;;5.15;100.00;149964.38;10582432;28;20044;-75
2024/02/13 06:07:45;;;;;;;5.78;4.20;;;;;;;5.08;100.00;149946.38;10565267;28;20499;-75
2024/02/13 06:12:47;;;;;;;4.15;3.55;;;;;;;5.14;100.00;149961.81;10592244;28;20036;-74
2024/02/13 06:17:49;;;;;;;5.63;3.83;;;;;;;5.16;100.00;149965.66;10592185;28;20063;-75
2024/02/13 06:22:51;;;;;;;4.18;3.20;;;;;;;5.13;100.00;149957.94;10591162;28;20048;-75
2024/02/13 06:27:53;;;;;;;5.20;2.88;;;;;;;5.02;100.00;149932.25;10590925;28;20562;-74
2024/02/13 06:32:55;;;;;;;5.07;4.43;;;;;;;5.13;100.00;149957.94;10590388;28;20436;-74
2024/02/13 06:37:59;;;;;;;4.88;4.00;;;;;;;4.99;100.00;149923.22;10590193;28;20123;-74
2024/02/13 06:43:03;;;;;;;4.28;3.67;;;;;;;5.07;100.00;149943.81;10571683;28;20040;-74
2024/02/13 06:48:06;;;;;;;3.42;3.13;;;;;;;5.13;98.97;149959.22;10590929;28;20052;-73
2024/02/13 06:53:09;;;;;;;4.40;3.72;;;;;;;5.06;99.36;149942.53;10570769;28;20040;-73
2024/02/13 06:58:13;;;;;;;3.97;3.33;;;;;;;5.13;98.67;149957.94;10588985;28;20495;-73
2024/02/13 07:03:15;;;;;;;5.50;3.70;;;;;;;5.02;99.94;149930.97;10588483;28;20058;-74
2024/02/13 07:08:17;;;;;;;4.90;3.70;;;;;;;4.99;99.68;149924.50;10588939;28;20044;-74
2024/02/13 07:13:19;;;;;;;3.33;3.00;;;;;;;4.98;99.58;149920.66;10589526;28;20040;-75
2024/02/13 07:18:21;;;;;;;5.63;3.38;;;;;;;5.03;98.04;149934.78;10589255;28;20055;-74
2024/02/13 07:23:23;;;;;;;7.70;4.68;;;;;;;4.99;98.94;149924.50;10589594;28;20085;-74
2024/02/13 07:28:25;;;;;;;6.60;4.22;;;;;;;5.02;99.67;149932.25;10589555;28;20051;-73
2024/02/13 07:33:27;;;;;;;4.32;3.90;;;;;;;5.19;97.67;149974.66;10570276;28;20123;-74
2024/02/13 07:38:30;;;;;;;4.05;3.33;;;;;;;5.01;99.21;149929.69;10587878;28;20499;-74
2024/02/13 07:43:32;;;;;;;5.50;3.47;;;;;;;5.28;95.90;149996.53;10569797;28;20055;-74
2024/02/13 07:48:34;;;;;;;4.90;3.70;;;;;;;5.30;95.85;150001.66;10588234;28;20040;-74
2024/02/13 07:53:36;;;;;;;4.47;3.00;;;;;;;5.29;95.12;149999.09;10587168;28;20039;-74
2024/02/13 07:58:39;;;;;;;4.82;3.05;;;;;;;5.43;93.34;150033.81;10552784;28;20504;-74
2024/02/13 08:03:41;;;;;;;8.10;3.13;;;;;;;5.47;93.27;150045.38;10587116;28;20047;-74
2024/02/13 08:08:43;;;;;;;3.22;2.67;;;;;;;5.49;93.67;150050.56;10569079;28;20457;-72
2024/02/13 08:13:44;;;;;;;2.97;2.63;;;;;;;5.48;93.54;150046.66;10568962;28;20518;-73
2024/02/13 08:18:50;;;;;;;6.47;2.92;;;;;;;5.45;94.19;150038.97;10588165;28;20043;-74
2024/02/13 08:23:52;;;;;;;4.88;3.45;;;;;;;5.51;93.62;150055.66;10553546;28;20697;-74
2024/02/13 08:28:54;;;;;;;4.25;2.97;;;;;;;5.66;92.16;150092.94;10588205;28;20376;-74
2024/02/13 08:33:57;;;;;;;3.42;2.72;;;;;;;5.61;91.98;150080.09;10588115;28;20048;-75
2024/02/13 08:39:00;;;;;;;3.67;2.65;;;;;;;5.64;92.62;150086.56;10588967;28;20047;-75
2024/02/13 08:44:03;;;;;;;4.03;2.90;;;;;;;5.73;89.43;150110.97;10623264;27;20085;-74
2024/02/13 08:49:06;;;;;;;3.20;2.90;;;;;;;5.69;89.99;150099.41;10615247;27;20070;-74
2024/02/13 08:54:12;;;;;;;4.38;2.83;;;;;;;5.57;89.91;150071.09;10611349;27;20457;-74
2024/02/13 08:59:14;;;;;;;5.97;3.00;;;;;;;5.70;90.39;150101.97;10644161;27;20068;-74
2024/02/13 09:04:16;;;;;;;4.90;3.72;;;;;;;5.67;92.62;150094.28;10672913;27;20058;-75
2024/02/13 09:09:19;;;;;;;4.63;3.08;;;;;;;6.03;90.65;150186.94;10671668;27;20143;-75
2024/02/13 09:14:21;;;;;;;3.90;3.28;;;;;;;6.00;87.44;150179.22;10672591;27;20034;-74
2024/02/13 09:19:26;;;;;;;4.07;3.05;;;;;;;6.19;85.20;150225.53;10673689;27;20053;-77
2024/02/13 09:24:29;;;;;;;4.22;2.83;;;;;;;6.04;86.34;150189.50;10654671;27;20118;-75
2024/02/13 09:29:30;;;;;;;3.92;3.05;;;;;;;6.08;87.49;150198.53;10657948;27;20050;-74
2024/02/13 09:34:33;;;;;;;4.32;2.95;;;;;;;6.14;87.12;150212.66;10674401;27;20147;-74
2024/02/13 09:39:35;;;;;;;4.43;2.95;;;;;;;6.19;84.80;150226.81;10674365;27;20031;-74
2024/02/13 09:44:37;;;;;;;2.90;2.63;;;;;;;6.29;85.41;150251.28;10648251;27;20039;-75
2024/02/13 09:49:40;;;;;;;5.57;3.88;;;;;;;6.49;83.88;150302.75;10634568;27;20039;-74
2024/02/13 09:54:48;;;;;;;5.35;3.28;;;;;;;6.44;84.21;150288.59;10633246;27;20447;-74
2024/02/13 09:59:50;;;;;;;3.83;2.67;;;;;;;6.56;80.42;150320.78;10630977;27;20046;-73
2024/02/13 10:04:52;;;;;;;2.80;2.60;;;;;;;6.79;79.00;150377.41;10637814;27;20031;-73
2024/02/13 10:09:54;;;;;;;2.63;1.98;;;;;;;6.54;81.01;150315.59;10640822;27;20051;-74
2024/02/13 10:15:00;;;;;;;3.05;2.20;;;;;;;6.49;80.00;150301.47;10620916;27;20033;-74
2024/02/13 10:20:03;;;;;;;2.87;1.60;;;;;;;6.65;78.70;150341.38;10620692;27;20445;-75
2024/02/13 10:25:08;;;;;;;2.08;1.48;;;;;;;6.70;75.25;150355.53;10620262;27;20096;-75
2024/02/13 10:30:11;;;;;;;2.67;1.50;;;;;;;6.53;76.78;150313.03;10603751;27;20539;-75
2024/02/13 10:35:13;;;;;;;2.08;1.60;;;;;;;6.66;76.98;150343.94;10627827;27;20039;-75
2024/02/13 10:40:20;;;;;;;2.30;1.45;;;;;;;6.47;74.60;150297.59;10623080;27;20043;-74
2024/02/13 10:45:33;;;;;;;1.40;1.10;;;;;;;6.36;74.89;150269.28;10637213;27;20041;-74
2024/02/13 10:50:36;;;;;;;1.58;1.13;;;;;;;6.69;73.13;150352.97;10652603;27;20049;-75
2024/02/13 10:55:40;;;;;;;2.42;1.20;;;;;;;7.52;70.74;150561.53;10677442;27;20149;-74
2024/02/13 11:00:45;;;;;;;0.90;0.87;;;;;;;7.97;66.66;150674.91;10682296;27;20098;-74
2024/02/13 11:05:48;;;;;;;2.15;1.05;;;;;;;7.99;67.75;150681.38;10644680;27;20401;-73
2024/02/13 11:10:53;;;;;;;1.23;1.10;;;;;;;8.32;66.63;150763.84;10677240;27;20041;-75
2024/02/13 11:15:57;;;;;;;1.35;1.25;;;;;;;8.70;64.77;150859.28;10675725;27;20035;-74
2024/02/13 11:21:06;;;;;;;1.95;1.80;;;;;;;9.01;66.04;150937.94;10657674;27;20053;-73
2024/02/13 11:26:17;;;;;;;1.57;1.00;;;;;;;9.37;65.85;151028.22;10657545;27;20038;-72
2024/02/13 11:31:19;;;;;;;1.50;1.30;;;;;;;9.39;62.52;151034.72;10656490;27;20448;-72
2024/02/13 11:36:22;;;;;;;2.45;1.40;;;;;;;9.84;63.15;151148.25;10673808;27;20062;-73
2024/02/13 11:41:25;;;;;;;3.05;1.58;;;;;;;9.94;62.83;151174.03;10674830;27;20074;-73
2024/02/13 11:46:27;;;;;;;2.80;1.77;;;;;;;9.80;63.00;151137.91;10640304;27;20047;-74
2024/02/13 11:51:29;;;;;;;2.08;1.50;;;;;;;9.99;60.46;151185.66;10674221;27;20068;-73
2024/02/13 11:56:35;;;;;;;2.92;1.67;;;;;;;9.86;62.62;151153.38;10655502;27;20035;-74
2024/02/13 12:01:37;;;;;;;2.25;1.67;;;;;;;10.38;60.25;151285.09;10673731;27;20104;-73
2024/02/13 12:06:40;;;;;;;1.98;1.75;;;;;;;10.44;60.68;151300.56;10672506;27;20126;-73
2024/02/13 12:11:45;;;;;;;3.22;1.80;;;;;;;9.65;61.26;151100.50;10672912;27;20051;-74
2024/02/13 12:16:47;;;;;;;5.43;3.70;;;;;;;9.55;61.67;151075.94;10673101;27;20043;-73
2024/02/13 12:21:49;;;;;;;2.50;2.30;;;;;;;9.63;63.60;151094.03;10671461;27;20046;-73
2024/02/13 12:26:51;;;;;;;2.20;1.63;;;;;;;9.51;61.16;151065.63;10652790;27;20050;-73
2024/02/13 12:31:53;;;;;;;2.25;1.60;;;;;;;9.44;62.51;151046.31;10671831;27;20058;-73
2024/02/13 12:36:56;;;;;;;4.57;3.55;;;;;;;9.67;61.90;151105.66;10672111;27;20038;-72
2024/02/13 12:41:59;;;;;;;3.35;2.78;;;;;;;9.53;57.84;151069.53;10670577;27;20077;-73
2024/02/13 12:47:03;;;;;;;3.13;2.88;;;;;;;9.24;61.23;150997.25;10671248;27;20035;-74
2024/02/13 12:52:06;;;;;;;3.17;2.25;;;;;;;9.03;61.18;150944.44;10673317;27;20382;-74
2024/02/13 12:57:08;;;;;;;2.50;2.22;;;;;;;8.74;62.11;150870.91;10672586;27;20047;-73
2024/02/13 13:02:10;;;;;;;3.50;2.97;;;;;;;8.80;62.30;150886.34;10671314;27;20069;-73
2024/02/13 13:07:13;;;;;;;4.72;4.10;;;;;;;8.69;62.86;150858.00;10672078;27;20122;-73
2024/02/13 13:12:15;;;;;;;3.28;2.97;;;;;;;8.53;64.34;150818.03;10670411;27;20062;-72
2024/02/13 13:17:21;;;;;;;2.85;2.20;;;;;;;8.57;62.53;150828.34;10670346;27;20095;-73
2024/02/13 13:22:25;;;;;;;3.63;3.00;;;;;;;8.48;62.64;150803.84;10670553;27;20099;-72
2024/02/13 13:27:26;;;;;;;4.07;2.50;;;;;;;8.29;62.45;150757.41;10670004;27;20563;-73
2024/02/13 13:32:28;;;;;;;2.30;2.10;;;;;;;8.45;61.47;150797.38;10669647;27;20109;-73
2024/02/13 13:37:31;;;;;;;2.63;2.40;;;;;;;8.25;62.80;150745.81;10670224;27;20062;-73
2024/02/13 13:42:39;;;;;;;2.50;1.80;;;;;;;8.00;63.96;150683.94;10651787;27;20039;-73
2024/02/13 13:47:45;;;;;;;2.00;1.60;;;;;;;8.24;63.18;150743.25;10669851;27;20042;-72
2024/02/13 13:52:48;;;;;;;2.30;1.50;;;;;;;8.42;61.44;150788.41;10671360;27;20070;-73
2024/02/13 13:57:52;;;;;;;2.65;1.33;;;;;;;8.41;60.30;150787.13;10652988;27;20045;-73
2024/02/13 14:02:54;;;;;;;1.75;1.20;;;;;;;8.24;61.01;150744.53;10669301;27;20042;-73
2024/02/13 14:07:56;;;;;;;1.75;1.20;;;;;;;8.18;60.22;150729.03;10670131;27;20121;-73
2024/02/13 14:13:00;;;;;;;1.80;1.30;;;;;;;8.00;61.53;150683.94;10669550;27;20042;-73
2024/02/13 14:18:04;;;;;;;3.15;1.35;;;;;;;7.95;62.09;150671.06;10669428;27;20039;-73
2024/02/13 14:23:07;;;;;;;2.03;1.20;;;;;;;7.81;62.25;150635.00;10669036;27;20517;-73
2024/02/13 14:28:11;;;;;;;2.75;1.13;;;;;;;7.92;60.10;150663.31;10670085;27;20049;-75
2024/02/13 14:33:13;;;;;;;1.55;0.82;;;;;;;7.92;58.65;150662.03;10659030;27;20087;-73
2024/02/13 14:38:15;;;;;;;1.08;0.98;;;;;;;7.91;60.15;150660.75;10659355;27;20390;-74
2024/02/13 14:43:17;;;;;;;3.00;1.17;;;;;;;8.07;59.85;150700.72;10676549;27;20045;-75
2024/02/13 14:48:19;;;;;;;1.42;0.98;;;;;;;7.82;60.98;150637.56;10676736;27;20030;-73
2024/02/13 14:53:23;;;;;;;1.40;1.30;;;;;;;7.99;61.01;150681.38;10658111;27;20051;-73
2024/02/13 14:58:25;;;;;;;1.60;1.05;;;;;;;7.92;61.93;150663.31;10675788;27;20062;-73
2024/02/13 15:03:42;;;;;;;1.55;1.20;;;;;;;7.89;62.75;150654.31;10674498;27;20066;-73
2024/02/13 15:08:44;;;;;;;1.50;1.40;;;;;;;7.90;62.60;150658.19;10676340;27;20039;-73
2024/02/13 15:13:46;;;;;;;1.23;1.08;;;;;;;7.85;63.71;150645.31;10673868;27;20054;-74
2024/02/13 15:18:48;;;;;;;1.45;1.10;;;;;;;7.52;65.53;150561.53;10674698;27;20042;-74
2024/02/13 15:23:50;;;;;;;1.00;0.90;;;;;;;7.41;66.59;150534.50;10674329;27;20038;-73
2024/02/13 15:28:52;;;;;;;2.70;1.30;;;;;;;7.51;65.53;150560.25;10673509;27;20035;-73
2024/02/13 15:33:54;;;;;;;2.05;1.17;;;;;;;7.56;66.41;150573.13;10675094;27;20054;-73
2024/02/13 15:49:43;;;;;;;1.50;1.10;;;;;;;6.89;70.20;150403.16;10673767;27;20043;-76
2024/02/13 15:54:47;;;;;;;1.10;1.00;;;;;;;6.86;69.43;150394.13;10672440;27;20035;-74
2024/02/13 15:59:51;;;;;;;2.13;1.52;;;;;;;6.82;70.08;150385.16;10673902;27;20118;-73
2024/02/13 16:04:53;;;;;;;2.13;1.40;;;;;;;6.63;71.54;150336.19;10671913;27;20050;-73
2024/02/13 16:09:55;;;;;;;2.10;1.58;;;;;;;6.74;71.15;150364.53;10673238;27;20041;-72
2024/02/13 16:14:57;;;;;;;1.83;1.20;;;;;;;6.63;71.31;150337.47;10653307;27;20035;-73
2024/02/13 16:19:59;;;;;;;1.63;1.15;;;;;;;6.37;72.16;150270.56;10652506;27;20099;-72
2024/02/13 16:25:05;;;;;;;2.10;1.20;;;;;;;6.22;72.98;150233.25;10670627;27;20117;-73
2024/02/13 16:30:08;;;;;;;1.92;1.30;;;;;;;6.26;73.80;150243.56;10652141;27;20047;-74
2024/02/13 16:35:10;;;;;;;3.95;1.27;;;;;;;6.18;75.68;150224.25;10669765;27;20483;-73
2024/02/13 16:40:14;;;;;;;1.92;1.38;;;;;;;6.40;77.13;150278.28;10669947;27;20049;-74
2024/02/13 16:45:18;;;;;;;4.68;4.28;;;;;;;6.36;77.58;150269.28;10651579;27;20502;-74
2024/02/13 16:50:20;;;;;;;6.85;6.10;;;;;;;6.10;77.77;150202.34;10670468;27;20142;-74
2024/02/13 16:55:24;;;;;;;6.70;6.20;;;;;;;5.78;79.83;150122.56;10651350;27;20117;-74
2024/02/13 17:00:26;;;;;;;5.07;3.42;;;;;;;5.79;80.92;150125.13;10651294;27;20108;-74
2024/02/13 17:05:28;;;;;;;3.20;2.90;;;;;;;5.54;82.36;150062.13;10669089;27;20096;-73
2024/02/13 17:10:30;;;;;;;2.97;2.30;;;;;;;5.21;83.82;149979.78;10650906;27;20055;-73
2024/02/13 17:15:31;;;;;;;3.42;2.58;;;;;;;5.28;83.23;149997.81;10670019;27;20404;-74
2024/02/13 17:20:33;;;;;;;3.42;2.40;;;;;;;5.50;81.49;150053.13;10650718;27;20066;-73
2024/02/13 17:25:35;;;;;;;3.67;1.98;;;;;;;5.80;78.77;150127.72;10650678;27;20443;-74
2024/02/13 17:30:37;;;;;;;3.30;1.98;;;;;;;6.04;76.75;150188.22;10654472;27;20518;-74
2024/02/13 17:35:39;;;;;;;2.17;1.50;;;;;;;6.12;75.40;150208.81;10607624;28;20042;-74
2024/02/13 17:40:41;;;;;;;3.13;2.53;;;;;;;6.21;74.66;150230.69;10626317;28;20043;-74
2024/02/13 17:45:43;;;;;;;2.70;1.90;;;;;;;6.00;75.52;150179.22;10627640;28;20073;-74
2024/02/13 17:50:46;;;;;;;1.95;1.67;;;;;;;6.04;75.19;150188.22;10626359;28;20059;-74
2024/02/13 17:55:48;;;;;;;2.80;1.90;;;;;;;5.95;74.94;150166.34;10627587;28;20038;-75
2024/02/13 18:00:50;;;;;;;3.25;1.45;;;;;;;5.97;74.93;150171.47;10626670;28;20470;-74
2024/02/13 18:05:52;;;;;;;2.70;1.75;;;;;;;5.80;75.07;150127.72;10634604;27;20043;-73
2024/02/13 18:10:54;;;;;;;2.22;1.70;;;;;;;5.82;74.72;150134.13;10636104;27;20471;-73
2024/02/13 18:15:55;;;;;;;5.15;1.88;;;;;;;5.66;75.30;150092.94;10635264;27;20035;-74
2024/02/13 18:20:57;;;;;;;2.90;1.75;;;;;;;5.61;76.02;150078.81;10634434;27;20066;-75
2024/02/13 18:25:59;;;;;;;2.35;1.73;;;;;;;5.50;76.19;150051.84;10616600;27;20070;-76
2024/02/13 18:31:02;;;;;;;3.15;1.67;;;;;;;5.42;76.54;150031.25;10635347;27;20050;-75
2024/02/13 18:36:04;;;;;;;3.65;1.80;;;;;;;5.49;76.76;150050.56;10616428;27;20039;-75
2024/02/13 18:41:07;;;;;;;3.90;1.80;;;;;;;5.49;76.29;150049.22;10616779;27;20047;-74
2024/02/13 18:46:10;;;;;;;2.05;1.80;;;;;;;5.46;76.78;150042.81;10633146;27;20110;-73
2024/02/13 18:51:14;;;;;;;3.03;2.05;;;;;;;5.34;77.19;150011.94;10633084;27;20074;-75
2024/02/13 18:56:16;;;;;;;4.13;1.95;;;;;;;5.30;77.26;150001.66;10634374;27;20154;-74
2024/02/13 19:01:19;;;;;;;3.38;1.52;;;;;;;5.35;76.65;150014.50;10633125;27;20047;-74
2024/02/13 19:06:21;;;;;;;2.63;1.42;;;;;;;5.23;77.47;149983.69;10633325;27;20065;-74
2024/02/13 19:11:23;;;;;;;3.38;1.92;;;;;;;5.20;78.20;149977.22;10634254;27;20043;-74
2024/02/13 19:16:26;;;;;;;3.53;2.00;;;;;;;5.09;78.40;149947.66;10632378;27;20027;-74
2024/02/13 19:21:28;;;;;;;9.10;2.78;;;;;;;4.75;80.13;149862.84;10616010;27;20043;-74
2024/02/13 19:26:30;;;;;;;3.15;2.45;;;;;;;4.71;80.16;149852.56;10614635;27;20096;-74
2024/02/13 19:31:32;;;;;;;3.97;2.33;;;;;;;4.65;80.47;149838.44;10634581;27;20047;-75
2024/02/13 19:36:34;;;;;;;4.20;3.10;;;;;;;4.83;79.85;149883.41;10632507;27;20039;-74
2024/02/13 19:41:36;;;;;;;3.60;2.58;;;;;;;4.68;80.31;149846.09;10633017;27;20122;-74
2024/02/13 19:46:39;;;;;;;3.10;2.35;;;;;;;4.44;80.97;149784.44;10634277;27;20070;-73
2024/02/13 19:51:43;;;;;;;3.28;2.00;;;;;;;4.20;82.12;149725.31;10634076;27;20407;-74
2024/02/13 19:56:45;;;;;;;3.65;2.40;;;;;;;4.20;82.61;149724.03;10632951;27;20035;-75
2024/02/13 20:01:51;;;;;;;4.80;2.28;;;;;;;4.14;83.04;149708.63;10614409;27;20516;-74
2024/02/13 20:06:52;;;;;;;3.55;2.42;;;;;;;4.02;83.37;149679.06;10632086;27;20100;-75
2024/02/13 20:11:54;;;;;;;3.70;2.33;;;;;;;4.01;83.22;149676.50;10632755;27;20050;-75
2024/02/13 20:16:56;;;;;;;3.53;2.30;;;;;;;3.69;84.96;149595.63;10631948;27;20123;-76
2024/02/13 20:21:59;;;;;;;3.42;2.20;;;;;;;3.41;86.79;149524.97;10613431;27;20039;-74
2024/02/13 20:27:02;;;;;;;3.83;2.72;;;;;;;3.23;88.64;149480.03;10610927;27;20035;-75
2024/02/13 20:32:04;;;;;;;2.28;1.90;;;;;;;3.10;89.44;149448.00;10631442;27;20127;-74
2024/02/13 20:37:06;;;;;;;4.05;2.28;;;;;;;2.99;90.16;149419.72;10631118;27;20109;-74
2024/02/13 20:42:08;;;;;;;3.00;2.08;;;;;;;2.80;91.56;149370.97;10612074;27;20047;-75
2024/02/13 20:47:10;;;;;;;2.55;2.30;;;;;;;2.74;92.81;149358.09;10630208;27;20058;-75
2024/02/13 20:52:13;;;;;;;9.48;2.45;;;;;;;2.83;92.86;149379.94;10630513;27;20130;-75
2024/02/13 20:57:15;;;;;;;2.40;2.20;;;;;;;2.81;93.94;149374.81;10631139;27;20042;-75
2024/02/13 21:02:17;;;;;;;2.40;2.05;;;;;;;2.63;94.73;149328.63;10630467;27;20039;-76
2024/02/13 21:07:20;;;;;;;4.15;2.20;;;;;;;2.57;95.49;149313.19;10630338;27;20452;-74
2024/02/13 21:12:21;;;;;;;4.18;1.75;;;;;;;2.71;94.97;149349.16;10665812;27;20045;-75
2024/02/13 21:17:23;;;;;;;5.38;2.20;;;;;;;2.80;93.30;149370.97;10653811;27;20039;-74
2024/02/13 21:27:46;;;;;;;2.08;1.75;;;;;;;3.32;90.62;149503.19;10672687;27;20042;-75
2024/02/13 21:32:47;;;;;;;2.25;1.70;;;;;;;3.27;90.65;149491.59;10654456;27;20045;-74
2024/02/13 21:37:49;;;;;;;2.63;1.73;;;;;;;3.35;89.92;149509.56;10671021;27;20045;-74
2024/02/13 21:42:51;;;;;;;3.65;2.10;;;;;;;3.13;90.30;149454.38;10669984;27;20043;-74
2024/02/13 21:47:53;;;;;;;4.07;1.92;;;;;;;3.12;90.79;149451.81;10651771;27;20038;-75
2024/02/13 21:52:55;;;;;;;2.78;1.77;;;;;;;3.04;90.39;149433.84;10669474;27;20042;-75
2024/02/13 21:57:58;;;;;;;3.95;1.88;;;;;;;3.04;90.04;149433.84;10652942;27;20072;-75
2024/02/13 22:03:05;;;;;;;3.10;1.98;;;;;;;2.95;90.88;149410.72;10670271;27;20045;-73
2024/02/13 22:08:07;;;;;;;2.70;1.73;;;;;;;2.80;91.75;149370.97;10671096;27;20043;-74
2024/02/13 22:13:09;;;;;;;2.95;2.00;;;;;;;2.80;92.43;149372.25;10672462;27;20066;-74
2024/02/13 22:18:10;;;;;;;2.33;1.73;;;;;;;2.58;93.29;149315.81;10671411;27;20073;-74
2024/02/13 22:23:13;;;;;;;3.45;1.80;;;;;;;2.46;94.20;149287.56;10651817;27;20079;-75
2024/02/13 22:28:16;;;;;;;2.90;1.85;;;;;;;2.28;95.14;149241.38;10670435;27;20068;-75
2024/02/13 22:33:18;;;;;;;3.78;1.48;;;;;;;2.37;94.94;149263.19;10669192;27;20056;-74
2024/02/13 22:38:19;;;;;;;3.03;1.30;;;;;;;2.57;93.98;149313.19;10669099;27;20043;-74
2024/02/13 22:43:21;;;;;;;2.13;1.45;;;;;;;2.38;94.96;149265.75;10667210;27;20130;-74
2024/02/13 22:48:23;;;;;;;1.55;1.35;;;;;;;2.30;95.60;149245.22;10667428;27;20043;-75
2024/02/13 22:53:25;;;;;;;2.30;1.40;;;;;;;2.25;96.43;149233.69;10674373;27;20051;-74
2024/02/13 22:58:27;;;;;;;2.67;1.30;;;;;;;2.22;96.20;149227.28;10674896;27;20047;-75
2024/02/13 23:03:29;;;;;;;1.95;1.45;;;;;;;2.31;95.11;149247.81;10655998;27;20098;-74
2024/02/13 23:08:31;;;;;;;2.38;1.63;;;;;;;2.16;96.12;149211.88;10674465;27;20051;-74
2024/02/13 23:13:33;;;;;;;3.20;1.83;;;;;;;2.04;97.23;149181.13;10673694;27;20535;-74
2024/02/13 23:18:44;;;;;;;2.53;1.92;;;;;;;1.90;97.82;149145.19;10655304;27;20050;-74
2024/02/13 23:23:46;;;;;;;1.70;1.60;;;;;;;1.83;98.60;149127.28;10674748;27;20035;-74
2024/02/13 23:28:49;;;;;;;2.40;2.03;;;;;;;1.73;99.15;149104.19;10673914;27;20125;-74
2024/02/13 23:33:57;;;;;;;2.35;1.60;;;;;;;1.74;99.26;149106.75;10673168;27;20067;-74
2024/02/13 23:39:00;;;;;;;2.35;1.70;;;;;;;1.75;99.75;149109.28;10673057;27;20387;-74
2024/02/13 23:44:02;;;;;;;3.05;1.70;;;;;;;1.67;100.00;149088.78;10673832;27;20062;-74